Time;durP1;ratioP1;P1;durP2;ratioP2;P2;SDS_P1;SDS_P2;PMS_P1;PMS_P2;Temp;Humidity;BMP_temperature;BMP_pressure;BME280_temperature;BME280_humidity;BME280_pressure;Samples;Min_cycle;Max_cycle;Signal;HPM_P1;HPM_P2
2023/03/15 00:01:27;;;;;;;0.70;0.50;;;;;;;;;;4973295;28;20208;-70
2023/03/15 00:03:55;;;;;;;1.40;0.63;;;;;;;;;;4979621;28;20238;-70
2023/03/15 00:06:20;;;;;;;0.50;0.50;;;;;;;;;;4979194;28;20231;-70
2023/03/15 00:08:46;;;;;;;4.00;0.60;;;;;;;;;;4986205;28;20211;-70
2023/03/15 00:11:12;;;;;;;0.97;0.50;;;;;;;;;;4975357;28;20617;-70
2023/03/15 00:13:37;;;;;;;1.67;0.57;;;;;;;;;;4973807;28;20181;-70
2023/03/15 00:16:03;;;;;;;0.70;0.40;;;;;;;;;;4970090;28;20648;-70
2023/03/15 00:18:28;;;;;;;1.33;0.63;;;;;;;;;;4954776;28;20204;-70
2023/03/15 00:20:54;;;;;;;0.80;0.50;;;;;;;;;;4955659;28;20739;-70
2023/03/15 00:23:19;;;;;;;1.07;0.40;;;;;;;;;;4969757;28;20216;-69
2023/03/15 00:25:45;;;;;;;1.17;0.60;;;;;;;;;;4974424;28;20238;-70
2023/03/15 00:28:11;;;;;;;2.47;0.57;;;;;;;;;;4972444;28;20493;-69
2023/03/15 00:30:36;;;;;;;0.93;0.60;;;;;;;;;;4974974;28;20196;-70
2023/03/15 00:33:04;;;;;;;1.40;0.70;;;;;;;;;;4975073;28;20177;-70
2023/03/15 00:35:29;;;;;;;1.40;0.67;;;;;;;;;;4966535;28;20208;-69
2023/03/15 00:37:55;;;;;;;1.70;0.70;;;;;;;;;;4981443;28;20188;-69
2023/03/15 00:40:21;;;;;;;0.60;0.50;;;;;;;;;;4975915;28;20673;-70
2023/03/15 00:42:49;;;;;;;0.87;0.50;;;;;;;;;;4969282;28;20568;-70
2023/03/15 00:45:15;;;;;;;1.10;0.63;;;;;;;;;;4971549;28;20259;-70
2023/03/15 00:47:41;;;;;;;0.50;0.50;;;;;;;;;;4971842;28;20185;-69
2023/03/15 00:50:06;;;;;;;1.53;0.80;;;;;;;;;;4971780;28;20257;-69
2023/03/15 00:52:35;;;;;;;1.30;0.50;;;;;;;;;;4967146;28;20619;-70
2023/03/15 00:55:00;;;;;;;2.40;0.63;;;;;;;;;;4964245;28;20585;-70
2023/03/15 00:57:26;;;;;;;1.03;0.50;;;;;;;;;;4980085;28;20189;-70
2023/03/15 00:59:52;;;;;;;3.47;1.00;;;;;;;;;;4974820;28;20196;-69
2023/03/15 01:02:20;;;;;;;1.00;0.80;;;;;;;;;;4974818;28;20726;-69
2023/03/15 01:04:46;;;;;;;2.20;1.20;;;;;;;;;;4975696;28;20190;-69
2023/03/15 01:07:11;;;;;;;2.37;1.83;;;;;;;;;;4974691;28;20208;-69
2023/03/15 01:09:36;;;;;;;2.17;1.00;;;;;;;;;;4965637;28;20623;-70
2023/03/15 01:12:01;;;;;;;3.60;1.00;;;;;;;;;;4973282;28;20168;-70
2023/03/15 01:14:26;;;;;;;3.43;1.43;;;;;;;;;;4975071;28;20211;-69
2023/03/15 01:16:52;;;;;;;2.83;1.10;;;;;;;;;;4979236;28;20262;-70
2023/03/15 01:19:17;;;;;;;1.70;0.87;;;;;;;;;;4972533;28;20189;-69
2023/03/15 01:21:46;;;;;;;2.63;1.00;;;;;;;;;;4970165;28;20299;-69
2023/03/15 01:24:13;;;;;;;2.43;1.03;;;;;;;;;;4967021;28;20191;-69
2023/03/15 01:26:38;;;;;;;4.90;1.07;;;;;;;;;;4967746;28;20200;-70
2023/03/15 01:29:03;;;;;;;2.57;1.00;;;;;;;;;;4969354;28;20172;-70
2023/03/15 01:31:29;;;;;;;3.83;1.27;;;;;;;;;;4973355;28;20196;-69
2023/03/15 01:33:55;;;;;;;5.03;1.33;;;;;;;;;;4971257;28;20172;-70
2023/03/15 01:36:20;;;;;;;5.03;1.30;;;;;;;;;;4972511;28;20677;-70
2023/03/15 01:38:46;;;;;;;2.97;0.80;;;;;;;;;;4969467;28;20263;-69
2023/03/15 01:41:11;;;;;;;3.43;0.87;;;;;;;;;;4966472;28;20201;-70
2023/03/15 01:43:37;;;;;;;4.37;1.20;;;;;;;;;;4966762;28;20183;-69
2023/03/15 01:46:02;;;;;;;1.67;1.00;;;;;;;;;;4971081;28;20236;-69
2023/03/15 01:48:36;;;;;;;2.17;1.13;;;;;;;;;;4971312;28;20184;-69
2023/03/15 01:51:04;;;;;;;5.43;1.10;;;;;;;;;;4968513;28;20665;-69
2023/03/15 01:53:31;;;;;;;4.07;1.00;;;;;;;;;;4973073;28;20212;-69
2023/03/15 01:55:57;;;;;;;1.33;0.93;;;;;;;;;;4970451;28;20231;-69
2023/03/15 01:58:25;;;;;;;4.73;1.27;;;;;;;;;;4966693;28;20219;-69
2023/03/15 02:00:51;;;;;;;1.40;1.03;;;;;;;;;;4972357;28;20211;-69
2023/03/15 02:03:25;;;;;;;2.50;1.00;;;;;;;;;;4969137;28;20184;-69
2023/03/15 02:05:53;;;;;;;2.03;1.00;;;;;;;;;;4977692;28;20682;-70
2023/03/15 02:08:20;;;;;;;5.00;1.30;;;;;;;;;;4971802;28;20191;-70
2023/03/15 02:10:53;;;;;;;1.80;1.30;;;;;;;;;;4934728;28;1087791;-70
2023/03/15 02:13:23;;;;;;;3.27;1.43;;;;;;;;;;4971467;28;20234;-70
2023/03/15 02:15:48;;;;;;;7.63;2.13;;;;;;;;;;4962893;28;20192;-70
2023/03/15 02:18:14;;;;;;;2.37;1.10;;;;;;;;;;4982835;28;20278;-70
2023/03/15 02:20:45;;;;;;;3.37;1.30;;;;;;;;;;4988655;28;20204;-69
2023/03/15 02:23:18;;;;;;;3.20;1.30;;;;;;;;;;4969921;28;20191;-69
2023/03/15 02:25:46;;;;;;;1.83;1.10;;;;;;;;;;4972041;28;20204;-69
2023/03/15 02:28:13;;;;;;;2.77;1.10;;;;;;;;;;4972115;28;20184;-69
2023/03/15 02:30:39;;;;;;;4.63;1.37;;;;;;;;;;4987444;28;20248;-69
2023/03/15 02:33:06;;;;;;;2.40;1.30;;;;;;;;;;4966664;28;20188;-69
2023/03/15 02:35:31;;;;;;;3.03;1.30;;;;;;;;;;4971092;28;20574;-69
2023/03/15 02:37:57;;;;;;;1.47;1.00;;;;;;;;;;4973043;28;20315;-69
2023/03/15 02:40:24;;;;;;;4.53;1.10;;;;;;;;;;4956252;28;20216;-69
2023/03/15 02:42:54;;;;;;;2.27;1.20;;;;;;;;;;4968145;28;20208;-70
2023/03/15 02:45:20;;;;;;;4.50;1.63;;;;;;;;;;4971233;28;20565;-70
2023/03/15 02:47:45;;;;;;;3.03;1.03;;;;;;;;;;4967407;28;20280;-70
2023/03/15 02:50:10;;;;;;;5.20;1.40;;;;;;;;;;4970175;28;20243;-70
2023/03/15 02:52:36;;;;;;;4.00;1.23;;;;;;;;;;4969829;28;20226;-69
2023/03/15 02:55:01;;;;;;;2.17;1.10;;;;;;;;;;4967594;28;20180;-69
2023/03/15 02:57:26;;;;;;;2.40;1.03;;;;;;;;;;4973136;28;20271;-69
2023/03/15 02:59:53;;;;;;;3.87;1.37;;;;;;;;;;4966122;28;20200;-70
2023/03/15 03:02:19;;;;;;;2.63;1.03;;;;;;;;;;4973682;28;20176;-70
2023/03/15 03:04:44;;;;;;;4.47;1.47;;;;;;;;;;4985865;28;20630;-70
2023/03/15 03:07:09;;;;;;;5.97;1.40;;;;;;;;;;4971816;28;20204;-70
2023/03/15 03:09:35;;;;;;;7.50;1.63;;;;;;;;;;4973564;28;20212;-70
2023/03/15 03:12:00;;;;;;;3.03;1.30;;;;;;;;;;4976580;28;20200;-70
2023/03/15 03:14:25;;;;;;;3.43;1.50;;;;;;;;;;4974759;28;20716;-70
2023/03/15 03:16:51;;;;;;;4.00;1.87;;;;;;;;;;4978489;28;20218;-70
2023/03/15 03:19:16;;;;;;;4.43;1.50;;;;;;;;;;4982482;28;20180;-71
2023/03/15 03:21:44;;;;;;;3.93;1.30;;;;;;;;;;4990984;28;20206;-71
2023/03/15 03:24:10;;;;;;;4.23;1.73;;;;;;;;;;4969965;28;20185;-71
2023/03/15 03:26:36;;;;;;;5.37;1.80;;;;;;;;;;4991000;28;20218;-70
2023/03/15 03:29:01;;;;;;;5.00;2.00;;;;;;;;;;4974974;28;20172;-70
2023/03/15 03:31:27;;;;;;;3.10;1.50;;;;;;;;;;4992212;28;20572;-70
2023/03/15 03:33:52;;;;;;;4.00;1.70;;;;;;;;;;4971582;28;20180;-70
2023/03/15 03:36:18;;;;;;;4.83;1.70;;;;;;;;;;4975037;28;20194;-70
2023/03/15 03:38:45;;;;;;;4.63;2.00;;;;;;;;;;4971487;28;20535;-70
2023/03/15 03:41:10;;;;;;;6.23;1.57;;;;;;;;;;4964714;28;20286;-70
2023/03/15 03:43:36;;;;;;;6.40;2.00;;;;;;;;;;4978110;28;20267;-70
2023/03/15 03:46:01;;;;;;;4.10;1.87;;;;;;;;;;4969708;28;20287;-70
2023/03/15 03:48:26;;;;;;;3.70;2.13;;;;;;;;;;4973588;28;20176;-70
2023/03/15 03:50:51;;;;;;;2.10;1.37;;;;;;;;;;4977230;28;20572;-70
2023/03/15 03:53:17;;;;;;;5.67;2.07;;;;;;;;;;4982730;28;20268;-70
2023/03/15 03:55:42;;;;;;;2.50;1.80;;;;;;;;;;4983367;28;20184;-71
2023/03/15 03:58:07;;;;;;;6.57;2.30;;;;;;;;;;4976479;28;20183;-70
2023/03/15 04:00:33;;;;;;;2.50;1.60;;;;;;;;;;4976330;28;20201;-70
2023/03/15 04:02:58;;;;;;;2.23;1.57;;;;;;;;;;4977361;28;20204;-70
2023/03/15 04:05:23;;;;;;;4.93;2.00;;;;;;;;;;4982686;28;20186;-70
2023/03/15 04:07:48;;;;;;;3.43;1.50;;;;;;;;;;4975930;28;20686;-70
2023/03/15 04:10:14;;;;;;;3.53;1.87;;;;;;;;;;4973800;28;20208;-70
2023/03/15 04:12:40;;;;;;;2.50;1.70;;;;;;;;;;4974058;28;20176;-71
2023/03/15 04:15:06;;;;;;;6.03;2.23;;;;;;;;;;4961068;28;20224;-70
2023/03/15 04:17:31;;;;;;;5.90;1.87;;;;;;;;;;4983889;28;20181;-70
2023/03/15 04:19:56;;;;;;;6.20;1.60;;;;;;;;;;4968114;28;20657;-71
2023/03/15 04:22:22;;;;;;;3.27;1.40;;;;;;;;;;4970655;28;20200;-71
2023/03/15 04:24:49;;;;;;;6.17;1.83;;;;;;;;;;4968482;28;20236;-70
2023/03/15 04:27:14;;;;;;;6.23;1.73;;;;;;;;;;4973789;28;20204;-70
2023/03/15 04:29:43;;;;;;;4.50;1.80;;;;;;;;;;4972697;28;20196;-70
2023/03/15 04:32:08;;;;;;;5.50;1.90;;;;;;;;;;4974376;28;20176;-70
2023/03/15 04:34:37;;;;;;;2.03;1.83;;;;;;;;;;4964772;28;20717;-71
2023/03/15 04:37:03;;;;;;;3.57;1.53;;;;;;;;;;4988547;28;20231;-71
2023/03/15 04:39:28;;;;;;;4.60;1.60;;;;;;;;;;4978369;28;20606;-70
2023/03/15 04:41:53;;;;;;;5.03;1.43;;;;;;;;;;4971574;28;20192;-69
2023/03/15 04:44:19;;;;;;;8.53;1.40;;;;;;;;;;4964498;28;20224;-69
2023/03/15 04:46:44;;;;;;;5.50;1.20;;;;;;;;;;4973433;28;20212;-70
2023/03/15 04:49:09;;;;;;;3.80;1.43;;;;;;;;;;4968778;28;20200;-70
2023/03/15 04:51:35;;;;;;;2.03;0.97;;;;;;;;;;4972417;28;20227;-71
2023/03/15 04:54:00;;;;;;;5.10;1.63;;;;;;;;;;4970240;28;20177;-70
2023/03/15 04:56:27;;;;;;;5.63;2.30;;;;;;;;;;4987034;28;20188;-70
2023/03/15 04:58:52;;;;;;;3.03;1.07;;;;;;;;;;4973069;28;20185;-71
2023/03/15 05:01:17;;;;;;;3.97;1.40;;;;;;;;;;4972449;28;20208;-70
2023/03/15 05:03:42;;;;;;;9.63;1.50;;;;;;;;;;4973637;28;20197;-71
2023/03/15 05:06:07;;;;;;;4.47;1.47;;;;;;;;;;4971655;28;20219;-70
2023/03/15 05:08:34;;;;;;;9.87;2.17;;;;;;;;;;4971463;28;20188;-70
2023/03/15 05:10:59;;;;;;;4.97;1.40;;;;;;;;;;4993265;23;20250;-75
2023/03/15 05:13:25;;;;;;;5.87;1.67;;;;;;;;;;5013385;28;20264;-75
2023/03/15 05:15:50;;;;;;;4.33;1.33;;;;;;;;;;5010595;28;20725;-75
2023/03/15 05:18:15;;;;;;;4.23;1.30;;;;;;;;;;5010397;28;20187;-75
2023/03/15 05:20:40;;;;;;;4.47;1.70;;;;;;;;;;5000480;28;20200;-75
2023/03/15 05:23:05;;;;;;;8.37;1.20;;;;;;;;;;4987812;28;20182;-74
2023/03/15 05:25:31;;;;;;;5.03;1.67;;;;;;;;;;4987935;28;20194;-75
2023/03/15 05:27:56;;;;;;;5.30;2.03;;;;;;;;;;4993812;28;20179;-75
2023/03/15 05:30:21;;;;;;;4.50;1.27;;;;;;;;;;4986065;28;20241;-75
2023/03/15 05:32:46;;;;;;;2.60;1.40;;;;;;;;;;4982170;28;20275;-75
2023/03/15 05:35:12;;;;;;;5.30;1.63;;;;;;;;;;4983234;28;20237;-75
2023/03/15 05:37:37;;;;;;;4.13;1.67;;;;;;;;;;4986632;28;20567;-75
2023/03/15 05:40:06;;;;;;;4.50;1.90;;;;;;;;;;4981929;28;20191;-75
2023/03/15 05:42:32;;;;;;;4.87;1.23;;;;;;;;;;4982678;28;20188;-75
2023/03/15 05:44:57;;;;;;;3.63;1.20;;;;;;;;;;4985640;28;20176;-74
2023/03/15 05:47:22;;;;;;;5.10;1.70;;;;;;;;;;4983512;28;20204;-75
2023/03/15 05:49:48;;;;;;;4.00;1.60;;;;;;;;;;4982853;28;20180;-75
2023/03/15 05:52:13;;;;;;;4.30;1.53;;;;;;;;;;4983070;28;20200;-75
2023/03/15 05:54:39;;;;;;;4.00;2.07;;;;;;;;;;4974375;28;20238;-75
2023/03/15 05:57:04;;;;;;;7.80;1.43;;;;;;;;;;4986539;28;20266;-75
2023/03/15 05:59:29;;;;;;;5.23;1.73;;;;;;;;;;4985404;28;20191;-74
2023/03/15 06:01:55;;;;;;;6.10;1.80;;;;;;;;;;4981539;28;20578;-74
2023/03/15 06:04:20;;;;;;;8.67;1.80;;;;;;;;;;4979632;28;20180;-74
2023/03/15 06:06:46;;;;;;;4.13;1.30;;;;;;;;;;4980719;28;20204;-73
2023/03/15 06:09:11;;;;;;;5.93;1.40;;;;;;;;;;4991378;28;20198;-74
2023/03/15 06:11:36;;;;;;;5.83;1.80;;;;;;;;;;4993252;28;20371;-74
2023/03/15 06:14:01;;;;;;;4.13;1.27;;;;;;;;;;4985395;28;20172;-74
2023/03/15 06:16:27;;;;;;;4.83;1.77;;;;;;;;;;4981291;28;20182;-74
2023/03/15 06:18:52;;;;;;;5.10;1.60;;;;;;;;;;4980708;28;20195;-74
2023/03/15 06:21:17;;;;;;;5.70;1.50;;;;;;;;;;4984158;28;20294;-74
2023/03/15 06:23:42;;;;;;;4.50;1.73;;;;;;;;;;4986344;28;20867;-74
2023/03/15 06:26:07;;;;;;;11.33;2.33;;;;;;;;;;4982583;28;20200;-74
2023/03/15 06:28:33;;;;;;;5.43;1.30;;;;;;;;;;4980656;28;20182;-74
2023/03/15 06:31:02;;;;;;;4.83;1.23;;;;;;;;;;4983332;28;20196;-76
2023/03/15 06:33:28;;;;;;;4.63;1.60;;;;;;;;;;4976237;28;20184;-74
2023/03/15 06:35:53;;;;;;;5.00;1.73;;;;;;;;;;4980412;28;20180;-75
2023/03/15 06:38:18;;;;;;;6.70;1.50;;;;;;;;;;4984150;28;20434;-75
2023/03/15 06:40:43;;;;;;;6.40;1.60;;;;;;;;;;4977823;28;20234;-75
2023/03/15 06:43:12;;;;;;;10.47;3.87;;;;;;;;;;4980565;28;20175;-75
2023/03/15 06:45:38;;;;;;;7.37;1.37;;;;;;;;;;4982491;28;20184;-74
2023/03/15 06:48:03;;;;;;;6.47;1.90;;;;;;;;;;4984415;28;20179;-75
2023/03/15 06:50:28;;;;;;;3.03;1.60;;;;;;;;;;4985811;28;20175;-75
2023/03/15 06:52:53;;;;;;;10.63;2.00;;;;;;;;;;4988015;28;20238;-74
2023/03/15 06:55:19;;;;;;;6.83;2.07;;;;;;;;;;4981881;28;20226;-75
2023/03/15 06:57:44;;;;;;;7.50;2.00;;;;;;;;;;4978892;28;20196;-75
2023/03/15 07:00:10;;;;;;;4.40;1.77;;;;;;;;;;4980789;28;20183;-75
2023/03/15 07:02:36;;;;;;;8.87;2.50;;;;;;;;;;4985847;28;20634;-75
2023/03/15 07:05:02;;;;;;;8.13;1.83;;;;;;;;;;4984649;28;20609;-74
2023/03/15 07:07:27;;;;;;;5.20;2.50;;;;;;;;;;4986674;28;20626;-75
2023/03/15 07:09:53;;;;;;;8.00;1.30;;;;;;;;;;4986120;28;20182;-74
2023/03/15 07:12:18;;;;;;;4.73;2.17;;;;;;;;;;4980593;28;20250;-75
2023/03/15 07:14:45;;;;;;;5.30;1.57;;;;;;;;;;4988239;28;20624;-74
2023/03/15 07:17:10;;;;;;;3.43;1.70;;;;;;;;;;4987112;28;20209;-75
2023/03/15 07:19:35;;;;;;;4.23;1.63;;;;;;;;;;4988609;28;20661;-74
2023/03/15 07:22:01;;;;;;;4.00;1.50;;;;;;;;;;4981024;28;20210;-74
2023/03/15 07:24:27;;;;;;;2.97;1.50;;;;;;;;;;4985582;28;20172;-75
2023/03/15 07:26:55;;;;;;;10.93;2.20;;;;;;;;;;4986816;28;20199;-75
2023/03/15 07:29:20;;;;;;;3.00;1.17;;;;;;;;;;4989687;28;20176;-75
2023/03/15 07:31:45;;;;;;;3.80;1.10;;;;;;;;;;4983921;28;20757;-75
2023/03/15 07:34:10;;;;;;;1.83;1.00;;;;;;;;;;4990740;28;20172;-75
2023/03/15 07:36:36;;;;;;;3.43;1.40;;;;;;;;;;4993526;28;20198;-75
2023/03/15 07:39:01;;;;;;;5.47;1.00;;;;;;;;;;4980346;28;20186;-75
2023/03/15 07:41:26;;;;;;;2.67;1.00;;;;;;;;;;4979614;28;20199;-75
2023/03/15 07:43:51;;;;;;;2.70;1.00;;;;;;;;;;4983560;28;20176;-74
2023/03/15 07:46:16;;;;;;;6.37;1.33;;;;;;;;;;4989453;28;20199;-75
2023/03/15 07:48:42;;;;;;;4.67;1.23;;;;;;;;;;4983610;28;20192;-74
2023/03/15 07:51:07;;;;;;;2.20;1.10;;;;;;;;;;4990791;28;20250;-75
2023/03/15 07:53:32;;;;;;;4.70;1.07;;;;;;;;;;4982192;28;20194;-74
2023/03/15 07:55:58;;;;;;;4.53;1.40;;;;;;;;;;4994181;28;20620;-75
2023/03/15 07:58:23;;;;;;;0.83;0.70;;;;;;;;;;4987994;28;20657;-74
2023/03/15 08:00:48;;;;;;;2.97;1.00;;;;;;;;;;4994199;28;20207;-74
2023/03/15 08:03:13;;;;;;;3.77;1.80;;;;;;;;;;4973035;28;20537;-74
2023/03/15 08:05:38;;;;;;;5.93;0.97;;;;;;;;;;4989770;28;20215;-75
2023/03/15 08:08:04;;;;;;;3.47;0.87;;;;;;;;;;4981043;28;20579;-75
2023/03/15 08:10:29;;;;;;;1.00;0.70;;;;;;;;;;4985455;28;20220;-74
2023/03/15 08:12:55;;;;;;;4.93;1.20;;;;;;;;;;4990558;28;20279;-74
2023/03/15 08:15:20;;;;;;;4.37;1.00;;;;;;;;;;4981552;28;20315;-76
2023/03/15 08:17:48;;;;;;;4.07;1.00;;;;;;;;;;4981014;28;20181;-76
2023/03/15 08:20:16;;;;;;;3.33;1.50;;;;;;;;;;4991490;28;20223;-73
2023/03/15 08:22:44;;;;;;;2.90;0.70;;;;;;;;;;4983955;28;20239;-76
2023/03/15 08:25:10;;;;;;;1.77;0.80;;;;;;;;;;4993508;28;20180;-76
2023/03/15 08:27:36;;;;;;;2.63;0.90;;;;;;;;;;4990519;28;20297;-74
2023/03/15 08:30:01;;;;;;;3.70;1.00;;;;;;;;;;4992341;28;20255;-75
2023/03/15 08:32:26;;;;;;;3.97;1.27;;;;;;;;;;4981998;28;20180;-75
2023/03/15 08:34:52;;;;;;;5.57;1.00;;;;;;;;;;4987827;28;20185;-75
2023/03/15 08:37:17;;;;;;;2.40;1.00;;;;;;;;;;4983127;28;20207;-75
2023/03/15 08:39:42;;;;;;;2.90;0.70;;;;;;;;;;4984869;28;20184;-75
2023/03/15 08:42:08;;;;;;;4.77;1.13;;;;;;;;;;4985231;28;20199;-78
2023/03/15 08:44:33;;;;;;;1.47;0.77;;;;;;;;;;4983861;28;20230;-76
2023/03/15 08:46:58;;;;;;;4.83;1.30;;;;;;;;;;4981333;28;20200;-76
2023/03/15 08:49:24;;;;;;;2.90;0.90;;;;;;;;;;4987023;28;20251;-76
2023/03/15 08:51:49;;;;;;;4.40;0.77;;;;;;;;;;4982227;28;20198;-76
2023/03/15 08:54:15;;;;;;;3.83;0.70;;;;;;;;;;4990705;28;20172;-75
2023/03/15 08:56:40;;;;;;;2.37;0.97;;;;;;;;;;4993865;28;20192;-75
2023/03/15 08:59:06;;;;;;;5.10;1.20;;;;;;;;;;4978569;28;20191;-75
2023/03/15 09:01:32;;;;;;;4.60;1.67;;;;;;;;;;4986249;28;20219;-75
2023/03/15 09:03:57;;;;;;;3.57;2.13;;;;;;;;;;4988198;28;20580;-75
2023/03/15 09:06:22;;;;;;;3.00;0.80;;;;;;;;;;4990085;28;20713;-75
2023/03/15 09:08:48;;;;;;;2.10;0.90;;;;;;;;;;4983523;28;20173;-74
2023/03/15 09:11:13;;;;;;;2.30;1.00;;;;;;;;;;4982020;28;20682;-76
2023/03/15 09:13:38;;;;;;;4.63;1.30;;;;;;;;;;4988022;28;20180;-76
2023/03/15 09:16:03;;;;;;;5.07;1.10;;;;;;;;;;5000454;28;20184;-76
2023/03/15 09:18:29;;;;;;;3.30;1.20;;;;;;;;;;4986750;28;20219;-75
2023/03/15 09:20:54;;;;;;;2.70;0.95;;;;;;;;;;4987207;28;20342;-76
2023/03/15 09:23:19;;;;;;;3.05;0.90;;;;;;;;;;4986910;28;20182;-75
2023/03/15 09:25:45;;;;;;;1.77;1.25;;;;;;;;;;4982520;28;20172;-75
2023/03/15 09:28:10;;;;;;;3.17;0.90;;;;;;;;;;4986402;28;20182;-75
2023/03/15 09:30:37;;;;;;;3.33;0.85;;;;;;;;;;4970484;28;20204;-75
2023/03/15 09:33:02;;;;;;;2.63;1.10;;;;;;;;;;4987036;28;20181;-75
2023/03/15 09:35:27;;;;;;;4.18;0.82;;;;;;;;;;4979507;28;20180;-75
2023/03/15 09:37:53;;;;;;;2.38;0.88;;;;;;;;;;4996264;28;20188;-75
2023/03/15 09:40:21;;;;;;;6.05;1.27;;;;;;;;;;4983153;28;20203;-75
2023/03/15 09:42:46;;;;;;;1.55;0.88;;;;;;;;;;4989400;28;20195;-76
2023/03/15 09:45:25;;;;;;;3.28;1.15;;;;;;;;;;4987810;28;20179;-75
2023/03/15 09:47:50;;;;;;;3.63;1.58;;;;;;;;;;4988299;28;20578;-75
2023/03/15 09:50:24;;;;;;;2.17;0.65;;;;;;;;;;4986024;28;20279;-76
2023/03/15 09:53:02;;;;;;;3.53;1.00;;;;;;;;;;4981114;28;20179;-75
2023/03/15 09:55:27;;;;;;;2.95;0.90;;;;;;;;;;4989411;28;20206;-74
2023/03/15 09:58:00;;;;;;;3.88;0.90;;;;;;;;;;4987450;28;20199;-76
2023/03/15 10:00:37;;;;;;;2.78;1.00;;;;;;;;;;4983695;28;20219;-76
2023/03/15 10:03:05;;;;;;;7.55;1.95;;;;;;;;;;4989942;28;20282;-76
2023/03/15 10:05:31;;;;;;;2.20;0.77;;;;;;;;;;4976967;28;20192;-76
2023/03/15 10:07:56;;;;;;;2.47;1.00;;;;;;;;;;4993714;28;20215;-76
2023/03/15 10:10:26;;;;;;;3.67;1.00;;;;;;;;;;4982658;28;20191;-75
2023/03/15 10:12:57;;;;;;;2.47;0.77;;;;;;;;;;4987173;28;20187;-75
2023/03/15 10:15:23;;;;;;;4.40;1.08;;;;;;;;;;4984255;28;20230;-75
2023/03/15 10:18:04;;;;;;;4.07;1.55;;;;;;;;;;4986766;28;20626;-74
2023/03/15 10:20:34;;;;;;;3.72;1.23;;;;;;;;;;4985519;28;20207;-75
2023/03/15 10:23:20;;;;;;;4.20;1.45;;;;;;;;;;4984586;28;20528;-75
2023/03/15 10:25:48;;;;;;;3.05;1.00;;;;;;;;;;4984901;28;20255;-75
2023/03/15 10:28:19;;;;;;;3.17;0.57;;;;;;;;;;4984508;28;20180;-76
2023/03/15 10:30:45;;;;;;;4.22;0.90;;;;;;;;;;4977794;28;20207;-74
2023/03/15 10:33:30;;;;;;;2.03;0.95;;;;;;;;;;5003841;28;20183;-73
2023/03/15 10:35:56;;;;;;;5.93;1.00;;;;;;;;;;4986764;28;20195;-75
2023/03/15 10:38:22;;;;;;;3.40;0.93;;;;;;;;;;4985083;28;20191;-74
2023/03/15 10:40:50;;;;;;;4.00;1.17;;;;;;;;;;4987217;28;20278;-74
2023/03/15 10:43:17;;;;;;;4.63;1.02;;;;;;;;;;4978685;28;20306;-75
2023/03/15 10:45:45;;;;;;;3.25;1.13;;;;;;;;;;4981333;28;20171;-75
2023/03/15 10:48:10;;;;;;;3.35;1.02;;;;;;;;;;4981226;28;20176;-74
2023/03/15 10:50:37;;;;;;;3.05;0.90;;;;;;;;;;4983417;28;20191;-75
2023/03/15 10:53:07;;;;;;;3.10;0.80;;;;;;;;;;4995354;28;20265;-75
2023/03/15 10:55:35;;;;;;;3.42;1.25;;;;;;;;;;4988984;28;20198;-74
2023/03/15 10:58:19;;;;;;;4.80;0.90;;;;;;;;;;4989284;28;20215;-74
2023/03/15 11:00:53;;;;;;;7.65;0.82;;;;;;;;;;4983326;28;20282;-74
2023/03/15 11:03:22;;;;;;;4.47;1.02;;;;;;;;;;4981913;28;20185;-74
2023/03/15 11:05:49;;;;;;;3.90;0.80;;;;;;;;;;5001498;28;20176;-75
2023/03/15 11:08:16;;;;;;;4.32;1.25;;;;;;;;;;4985672;28;20572;-76
2023/03/15 11:10:43;;;;;;;5.00;0.90;;;;;;;;;;4983521;28;20215;-76
2023/03/15 11:13:12;;;;;;;4.85;1.05;;;;;;;;;;4985681;28;20178;-76
2023/03/15 11:15:39;;;;;;;1.70;0.70;;;;;;;;;;4983289;28;20199;-75
2023/03/15 11:18:04;;;;;;;1.70;0.77;;;;;;;;;;4980108;28;20210;-76
2023/03/15 11:20:35;;;;;;;2.35;0.73;;;;;;;;;;4981462;28;20672;-75
2023/03/15 11:23:10;;;;;;;4.05;1.13;;;;;;;;;;4980204;28;20188;-75
2023/03/15 11:25:35;;;;;;;4.57;1.63;;;;;;;;;;4984873;28;20186;-76
2023/03/15 11:28:00;;;;;;;4.10;1.60;;;;;;;;;;4980059;28;20965;-76
2023/03/15 11:30:28;;;;;;;3.00;0.95;;;;;;;;;;4985577;28;20195;-75
2023/03/15 11:32:54;;;;;;;7.05;2.45;;;;;;;;;;4985828;28;20678;-73
2023/03/15 11:35:24;;;;;;;3.25;1.58;;;;;;;;;;4982272;28;20183;-75
2023/03/15 11:37:53;;;;;;;3.55;0.90;;;;;;;;;;4988066;28;21898;-76
2023/03/15 11:40:18;;;;;;;3.17;1.27;;;;;;;;;;4984789;28;20207;-76
2023/03/15 11:43:04;;;;;;;2.08;0.73;;;;;;;;;;4986128;28;20187;-76
2023/03/15 11:45:44;;;;;;;2.78;0.70;;;;;;;;;;4983818;28;20199;-76
2023/03/15 11:48:21;;;;;;;2.40;0.82;;;;;;;;;;4988854;28;20180;-76
2023/03/15 11:50:47;;;;;;;2.25;0.73;;;;;;;;;;4979151;28;20338;-76
2023/03/15 11:53:14;;;;;;;3.83;1.60;;;;;;;;;;4989624;28;20218;-76
2023/03/15 11:55:39;;;;;;;2.40;0.70;;;;;;;;;;4988525;28;20247;-75
2023/03/15 11:58:23;;;;;;;3.05;0.73;;;;;;;;;;4988931;28;20230;-75
2023/03/15 12:00:49;;;;;;;2.30;0.70;;;;;;;;;;4989322;28;20204;-75
2023/03/15 12:03:37;;;;;;;2.00;0.60;;;;;;;;;;5012083;23;20219;-85
2023/03/15 12:06:10;;;;;;;4.50;0.77;;;;;;;;;;5021959;28;20693;-85
2023/03/15 12:08:48;;;;;;;3.05;0.75;;;;;;;;;;5013949;23;20231;-86
2023/03/15 12:11:36;;;;;;;3.55;0.85;;;;;;;;;;5014248;28;20183;-86
2023/03/15 12:14:02;;;;;;;3.78;0.65;;;;;;;;;;5007552;28;20180;-86
2023/03/15 12:16:34;;;;;;;3.75;0.80;;;;;;;;;;5027989;28;20183;-86
2023/03/15 12:19:28;;;;;;;3.65;0.68;;;;;;;;;;5023963;28;20192;-86
2023/03/15 12:34:51;;;;;;;3.92;0.80;;;;;;;;;;5101451;22;20234;-75
2023/03/15 12:37:16;;;;;;;3.55;0.60;;;;;;;;;;4982280;28;20349;-75
2023/03/15 12:39:42;;;;;;;4.00;0.75;;;;;;;;;;4994222;28;20318;-75
2023/03/15 12:42:30;;;;;;;3.88;0.77;;;;;;;;;;4989722;28;20553;-75
2023/03/15 12:45:13;;;;;;;2.72;1.15;;;;;;;;;;4985899;28;20339;-75
2023/03/15 12:47:42;;;;;;;2.38;0.85;;;;;;;;;;5005285;23;20223;-68
2023/03/15 12:50:31;;;;;;;2.80;0.40;;;;;;;;;;5003908;28;20561;-68
2023/03/15 12:52:59;;;;;;;3.50;0.70;;;;;;;;;;4980978;28;20180;-69
2023/03/15 12:55:26;;;;;;;3.70;0.93;;;;;;;;;;5005144;28;20244;-69
2023/03/15 12:57:53;;;;;;;1.73;0.43;;;;;;;;;;4990300;28;20344;-68
2023/03/15 13:00:20;;;;;;;5.35;0.85;;;;;;;;;;4982779;28;20279;-68
2023/03/15 13:02:48;;;;;;;1.15;0.43;;;;;;;;;;4991905;28;20605;-68
2023/03/15 13:05:36;;;;;;;5.32;1.70;;;;;;;;;;4992413;28;20195;-68
2023/03/15 13:08:20;;;;;;;5.25;0.80;;;;;;;;;;4987349;28;20640;-68
2023/03/15 13:10:55;;;;;;;2.83;0.77;;;;;;;;;;4987956;28;20171;-68
2023/03/15 13:13:26;;;;;;;1.80;0.50;;;;;;;;;;4986895;28;20179;-69
2023/03/15 13:16:00;;;;;;;3.53;0.57;;;;;;;;;;4989404;28;20680;-69
2023/03/15 13:18:27;;;;;;;5.30;0.80;;;;;;;;;;4985380;28;20258;-69
2023/03/15 13:21:11;;;;;;;2.55;0.77;;;;;;;;;;4993614;28;20188;-69
2023/03/15 13:23:36;;;;;;;1.52;0.73;;;;;;;;;;5004943;28;20230;-69
2023/03/15 13:26:08;;;;;;;2.40;0.88;;;;;;;;;;4991428;28;20211;-69
2023/03/15 13:28:47;;;;;;;3.17;0.70;;;;;;;;;;4997506;28;20194;-69
2023/03/15 13:31:18;;;;;;;2.45;0.93;;;;;;;;;;4985635;28;20175;-69
2023/03/15 13:33:55;;;;;;;2.70;0.80;;;;;;;;;;4995083;28;20552;-69
2023/03/15 13:36:22;;;;;;;2.03;0.80;;;;;;;;;;4999688;28;20207;-68
2023/03/15 13:38:48;;;;;;;1.08;0.68;;;;;;;;;;4997633;28;20219;-68
2023/03/15 13:41:20;;;;;;;2.30;0.85;;;;;;;;;;4998498;28;20199;-69
2023/03/15 13:43:45;;;;;;;4.05;0.80;;;;;;;;;;4991856;28;20673;-69
2023/03/15 13:46:11;;;;;;;2.72;0.93;;;;;;;;;;4988804;28;20207;-69
2023/03/15 13:48:39;;;;;;;2.45;0.80;;;;;;;;;;4989198;28;20282;-69
2023/03/15 13:51:10;;;;;;;2.22;0.68;;;;;;;;;;4990844;28;20176;-69
2023/03/15 13:53:37;;;;;;;2.75;1.20;;;;;;;;;;4989370;28;21264;-69
2023/03/15 13:56:05;;;;;;;2.85;1.20;;;;;;;;;;4988094;28;20282;-69
2023/03/15 13:58:30;;;;;;;2.58;1.17;;;;;;;;;;4984574;28;20176;-68
2023/03/15 14:01:00;;;;;;;2.42;1.00;;;;;;;;;;4989557;28;20671;-69
2023/03/15 14:03:26;;;;;;;3.05;0.80;;;;;;;;;;4984837;28;20221;-69
2023/03/15 14:05:52;;;;;;;2.97;0.90;;;;;;;;;;4989960;28;20187;-69
2023/03/15 14:08:23;;;;;;;3.25;0.80;;;;;;;;;;4991143;28;20244;-69
2023/03/15 14:11:05;;;;;;;2.00;0.60;;;;;;;;;;4989289;28;20183;-69
2023/03/15 14:13:32;;;;;;;1.10;0.70;;;;;;;;;;4994000;28;20176;-69
2023/03/15 14:16:00;;;;;;;2.65;0.68;;;;;;;;;;4987778;28;20553;-68
2023/03/15 14:18:30;;;;;;;2.05;1.45;;;;;;;;;;4992799;28;20176;-69
2023/03/15 14:20:55;;;;;;;3.17;0.93;;;;;;;;;;4989616;28;20176;-69
2023/03/15 14:23:22;;;;;;;2.25;0.80;;;;;;;;;;4984402;28;20198;-68
2023/03/15 14:25:55;;;;;;;3.78;0.70;;;;;;;;;;4979223;28;20205;-69
2023/03/15 14:28:20;;;;;;;2.03;0.80;;;;;;;;;;4991839;28;20186;-68
2023/03/15 14:30:54;;;;;;;2.10;0.57;;;;;;;;;;4995973;28;20187;-68
2023/03/15 14:33:33;;;;;;;2.60;0.80;;;;;;;;;;4988528;28;20171;-69
2023/03/15 14:36:00;;;;;;;4.43;0.90;;;;;;;;;;4984027;28;20179;-69
2023/03/15 14:38:31;;;;;;;1.70;0.93;;;;;;;;;;4997884;28;20179;-69
2023/03/15 14:41:08;;;;;;;2.35;0.65;;;;;;;;;;4996947;28;20601;-68
2023/03/15 14:43:34;;;;;;;2.10;0.38;;;;;;;;;;4993212;28;20607;-68
2023/03/15 14:45:59;;;;;;;1.67;0.75;;;;;;;;;;4987905;28;20176;-69
2023/03/15 14:48:28;;;;;;;2.33;0.90;;;;;;;;;;4989956;28;20457;-69
2023/03/15 14:50:54;;;;;;;3.70;1.77;;;;;;;;;;4990505;28;20224;-69
2023/03/15 14:53:21;;;;;;;0.98;0.60;;;;;;;;;;4990052;28;20203;-68
2023/03/15 14:55:46;;;;;;;1.35;0.93;;;;;;;;;;4990230;28;20323;-69
2023/03/15 14:58:13;;;;;;;1.10;0.63;;;;;;;;;;4988404;28;20530;-69